sensor_id;sensor_type;location;lat;lon;timestamp;pressure;altitude;pressure_sealevel;temperature;humidity
39223;BME280;24936;46.328;11.026;2022-11-15T00:00:04;94779.97;;;4.42;100.00
39223;BME280;24936;46.328;11.026;2022-11-15T00:02:30;94783.72;;;4.37;100.00
39223;BME280;24936;46.328;11.026;2022-11-15T00:04:55;94787.81;;;4.31;100.00
39223;BME280;24936;46.328;11.026;2022-11-15T00:07:21;94776.66;;;4.29;100.00
39223;BME280;24936;46.328;11.026;2022-11-15T00:09:46;94780.72;;;4.23;100.00
39223;BME280;24936;46.328;11.026;2022-11-15T00:12:11;94780.31;;;4.21;100.00
39223;BME280;24936;46.328;11.026;2022-11-15T00:14:37;94776.03;;;4.17;100.00
39223;BME280;24936;46.328;11.026;2022-11-15T00:17:02;94778.53;;;4.09;100.00
39223;BME280;24936;46.328;11.026;2022-11-15T00:19:27;94771.28;;;4.10;100.00
39223;BME280;24936;46.328;11.026;2022-11-15T00:21:53;94767.47;;;4.11;100.00
39223;BME280;24936;46.328;11.026;2022-11-15T00:24:18;94763.09;;;4.03;100.00
39223;BME280;24936;46.328;11.026;2022-11-15T00:26:44;94760.34;;;3.99;100.00
39223;BME280;24936;46.328;11.026;2022-11-15T00:29:09;94764.34;;;3.89;100.00
39223;BME280;24936;46.328;11.026;2022-11-15T00:31:35;94753.88;;;3.84;100.00
39223;BME280;24936;46.328;11.026;2022-11-15T00:34:00;94755.31;;;3.78;100.00
39223;BME280;24936;46.328;11.026;2022-11-15T00:36:25;94760.06;;;3.69;100.00
39223;BME280;24936;46.328;11.026;2022-11-15T00:38:51;94757.97;;;3.62;100.00
39223;BME280;24936;46.328;11.026;2022-11-15T00:41:16;94762.63;;;3.65;100.00
39223;BME280;24936;46.328;11.026;2022-11-15T00:43:41;94763.16;;;3.71;100.00
39223;BME280;24936;46.328;11.026;2022-11-15T00:46:09;94758.22;;;3.73;100.00
39223;BME280;24936;46.328;11.026;2022-11-15T00:48:35;94753.41;;;3.79;100.00
39223;BME280;24936;46.328;11.026;2022-11-15T00:51:00;94753.13;;;3.84;100.00
39223;BME280;24936;46.328;11.026;2022-11-15T00:53:26;94746.63;;;3.85;100.00
39223;BME280;24936;46.328;11.026;2022-11-15T00:55:51;94744.69;;;3.82;100.00
39223;BME280;24936;46.328;11.026;2022-11-15T00:58:17;94752.34;;;3.83;100.00
39223;BME280;24936;46.328;11.026;2022-11-15T01:00:42;94751.50;;;3.79;100.00
39223;BME280;24936;46.328;11.026;2022-11-15T01:03:08;94744.94;;;3.77;100.00
39223;BME280;24936;46.328;11.026;2022-11-15T01:05:33;94749.31;;;3.85;100.00
39223;BME280;24936;46.328;11.026;2022-11-15T01:07:59;94738.59;;;3.85;100.00
39223;BME280;24936;46.328;11.026;2022-11-15T01:10:24;94752.25;;;3.80;100.00
39223;BME280;24936;46.328;11.026;2022-11-15T01:12:51;94746.72;;;3.88;100.00
39223;BME280;24936;46.328;11.026;2022-11-15T01:15:16;94747.06;;;3.87;100.00
39223;BME280;24936;46.328;11.026;2022-11-15T01:17:42;94733.47;;;3.96;100.00
39223;BME280;24936;46.328;11.026;2022-11-15T01:20:08;94740.66;;;3.91;100.00
39223;BME280;24936;46.328;11.026;2022-11-15T01:22:33;94723.25;;;3.82;100.00
39223;BME280;24936;46.328;11.026;2022-11-15T01:24:59;94729.03;;;3.84;100.00
39223;BME280;24936;46.328;11.026;2022-11-15T01:27:24;94732.56;;;3.88;100.00
39223;BME280;24936;46.328;11.026;2022-11-15T01:29:50;94727.59;;;4.06;100.00
39223;BME280;24936;46.328;11.026;2022-11-15T01:32:15;94726.38;;;4.03;100.00
39223;BME280;24936;46.328;11.026;2022-11-15T01:34:41;94727.47;;;3.83;100.00
39223;BME280;24936;46.328;11.026;2022-11-15T01:37:06;94723.56;;;3.61;100.00
39223;BME280;24936;46.328;11.026;2022-11-15T01:39:32;94733.50;;;3.45;100.00
39223;BME280;24936;46.328;11.026;2022-11-15T01:41:57;94731.88;;;3.40;100.00
39223;BME280;24936;46.328;11.026;2022-11-15T01:47:30;94724.97;;;3.23;100.00
39223;BME280;24936;46.328;11.026;2022-11-15T01:50:09;94719.03;;;2.98;100.00
39223;BME280;24936;46.328;11.026;2022-11-15T01:52:36;94714.59;;;2.90;100.00
39223;BME280;24936;46.328;11.026;2022-11-15T01:55:15;94721.41;;;2.72;100.00
39223;BME280;24936;46.328;11.026;2022-11-15T01:57:45;94718.97;;;2.66;100.00
39223;BME280;24936;46.328;11.026;2022-11-15T02:00:13;94712.75;;;2.47;100.00
39223;BME280;24936;46.328;11.026;2022-11-15T02:02:38;94710.75;;;2.43;100.00
39223;BME280;24936;46.328;11.026;2022-11-15T02:05:04;94709.81;;;2.24;100.00
39223;BME280;24936;46.328;11.026;2022-11-15T02:07:31;94700.31;;;2.10;100.00
39223;BME280;24936;46.328;11.026;2022-11-15T02:10:13;94705.59;;;1.94;100.00
39223;BME280;24936;46.328;11.026;2022-11-15T02:12:39;94705.50;;;1.91;100.00
39223;BME280;24936;46.328;11.026;2022-11-15T02:15:06;94696.22;;;1.73;100.00
39223;BME280;24936;46.328;11.026;2022-11-15T02:23:06;94704.91;;;1.45;100.00
39223;BME280;24936;46.328;11.026;2022-11-15T02:29:03;94683.16;;;1.31;100.00
39223;BME280;24936;46.328;11.026;2022-11-15T02:31:59;94682.38;;;1.42;100.00
39223;BME280;24936;46.328;11.026;2022-11-15T02:34:30;94677.94;;;1.34;100.00
39223;BME280;24936;46.328;11.026;2022-11-15T02:37:16;94675.16;;;1.18;100.00
39223;BME280;24936;46.328;11.026;2022-11-15T02:42:35;94662.72;;;1.23;100.00
39223;BME280;24936;46.328;11.026;2022-11-15T02:45:51;94665.16;;;1.15;100.00
39223;BME280;24936;46.328;11.026;2022-11-15T02:48:19;94662.06;;;1.01;100.00
39223;BME280;24936;46.328;11.026;2022-11-15T02:50:47;94664.50;;;0.94;100.00
39223;BME280;24936;46.328;11.026;2022-11-15T02:53:14;94651.63;;;0.96;100.00
39223;BME280;24936;46.328;11.026;2022-11-15T02:55:58;94644.28;;;1.05;100.00
39223;BME280;24936;46.328;11.026;2022-11-15T03:01:30;94642.94;;;0.99;100.00
39223;BME280;24936;46.328;11.026;2022-11-15T03:04:16;94645.06;;;1.06;100.00
39223;BME280;24936;46.328;11.026;2022-11-15T03:06:55;94640.50;;;0.94;100.00
39223;BME280;24936;46.328;11.026;2022-11-15T03:12:11;94641.41;;;0.98;100.00
39223;BME280;24936;46.328;11.026;2022-11-15T03:15:00;94643.63;;;1.08;100.00
39223;BME280;24936;46.328;11.026;2022-11-15T03:19:56;94646.94;;;1.17;100.00
39223;BME280;24936;46.328;11.026;2022-11-15T03:22:24;94641.84;;;1.12;100.00
39223;BME280;24936;46.328;11.026;2022-11-15T03:24:57;94639.81;;;1.21;100.00
39223;BME280;24936;46.328;11.026;2022-11-15T03:27:27;94638.59;;;1.31;100.00
39223;BME280;24936;46.328;11.026;2022-11-15T03:29:58;94643.47;;;1.29;100.00
39223;BME280;24936;46.328;11.026;2022-11-15T03:32:28;94648.91;;;1.33;100.00
39223;BME280;24936;46.328;11.026;2022-11-15T03:35:00;94647.03;;;1.33;100.00
39223;BME280;24936;46.328;11.026;2022-11-15T03:38:03;94643.25;;;1.22;100.00
39223;BME280;24936;46.328;11.026;2022-11-15T03:41:04;94645.41;;;1.04;100.00
39223;BME280;24936;46.328;11.026;2022-11-15T03:46:13;94647.75;;;0.81;100.00
39223;BME280;24936;46.328;11.026;2022-11-15T03:52:03;94625.44;;;0.86;100.00
39223;BME280;24936;46.328;11.026;2022-11-15T03:54:29;94627.53;;;0.92;100.00
39223;BME280;24936;46.328;11.026;2022-11-15T03:56:55;94616.66;;;0.85;100.00
39223;BME280;24936;46.328;11.026;2022-11-15T03:59:20;94616.19;;;0.83;100.00
39223;BME280;24936;46.328;11.026;2022-11-15T04:01:46;94602.56;;;0.85;100.00
39223;BME280;24936;46.328;11.026;2022-11-15T04:04:11;94611.00;;;0.75;100.00
39223;BME280;24936;46.328;11.026;2022-11-15T04:06:36;94608.69;;;0.73;100.00
39223;BME280;24936;46.328;11.026;2022-11-15T04:09:02;94626.28;;;0.53;100.00
39223;BME280;24936;46.328;11.026;2022-11-15T04:11:27;94631.50;;;0.49;100.00
39223;BME280;24936;46.328;11.026;2022-11-15T04:13:53;94626.97;;;0.50;100.00
39223;BME280;24936;46.328;11.026;2022-11-15T04:16:18;94617.28;;;0.45;100.00
39223;BME280;24936;46.328;11.026;2022-11-15T04:18:44;94617.50;;;0.40;100.00
39223;BME280;24936;46.328;11.026;2022-11-15T04:21:09;94622.16;;;0.31;100.00
39223;BME280;24936;46.328;11.026;2022-11-15T04:23:53;94620.59;;;0.30;100.00
39223;BME280;24936;46.328;11.026;2022-11-15T04:26:31;94622.16;;;0.31;100.00
39223;BME280;24936;46.328;11.026;2022-11-15T04:28:56;94621.59;;;0.26;100.00
39223;BME280;24936;46.328;11.026;2022-11-15T04:31:40;94626.00;;;0.21;100.00
39223;BME280;24936;46.328;11.026;2022-11-15T04:34:05;94629.88;;;0.12;100.00
39223;BME280;24936;46.328;11.026;2022-11-15T04:36:31;94636.50;;;0.06;100.00
39223;BME280;24936;46.328;11.026;2022-11-15T04:39:15;94640.41;;;0.08;100.00
39223;BME280;24936;46.328;11.026;2022-11-15T04:41:40;94645.69;;;0.41;100.00
39223;BME280;24936;46.328;11.026;2022-11-15T04:44:05;94646.72;;;0.61;100.00
39223;BME280;24936;46.328;11.026;2022-11-15T04:46:32;94647.41;;;0.70;100.00
39223;BME280;24936;46.328;11.026;2022-11-15T04:48:57;94646.84;;;0.77;100.00
39223;BME280;24936;46.328;11.026;2022-11-15T04:51:23;94643.06;;;0.90;100.00
39223;BME280;24936;46.328;11.026;2022-11-15T04:53:48;94649.63;;;1.05;100.00
39223;BME280;24936;46.328;11.026;2022-11-15T04:56:13;94643.38;;;1.13;100.00
39223;BME280;24936;46.328;11.026;2022-11-15T04:58:39;94645.63;;;1.24;100.00
39223;BME280;24936;46.328;11.026;2022-11-15T05:01:13;94638.38;;;1.36;100.00
39223;BME280;24936;46.328;11.026;2022-11-15T05:03:42;94629.34;;;1.41;100.00
39223;BME280;24936;46.328;11.026;2022-11-15T05:06:26;94630.34;;;1.49;100.00
39223;BME280;24936;46.328;11.026;2022-11-15T05:08:51;94629.66;;;1.52;100.00
39223;BME280;24936;46.328;11.026;2022-11-15T05:11:17;94626.69;;;1.53;100.00
39223;BME280;24936;46.328;11.026;2022-11-15T05:13:42;94630.53;;;1.56;100.00
39223;BME280;24936;46.328;11.026;2022-11-15T05:16:08;94623.00;;;1.58;100.00
39223;BME280;24936;46.328;11.026;2022-11-15T05:18:33;94614.41;;;1.64;100.00
39223;BME280;24936;46.328;11.026;2022-11-15T05:21:07;94621.19;;;1.62;100.00
39223;BME280;24936;46.328;11.026;2022-11-15T05:23:33;94626.44;;;1.58;100.00
39223;BME280;24936;46.328;11.026;2022-11-15T05:25:59;94624.88;;;1.57;100.00
39223;BME280;24936;46.328;11.026;2022-11-15T05:28:24;94616.94;;;1.73;100.00
39223;BME280;24936;46.328;11.026;2022-11-15T05:30:50;94611.25;;;1.75;100.00
39223;BME280;24936;46.328;11.026;2022-11-15T05:33:15;94597.50;;;1.73;100.00
39223;BME280;24936;46.328;11.026;2022-11-15T05:35:42;94597.34;;;1.53;100.00
39223;BME280;24936;46.328;11.026;2022-11-15T05:38:11;94609.81;;;1.37;100.00
39223;BME280;24936;46.328;11.026;2022-11-15T05:40:36;94607.59;;;1.39;100.00
39223;BME280;24936;46.328;11.026;2022-11-15T05:43:03;94605.94;;;1.34;100.00
39223;BME280;24936;46.328;11.026;2022-11-15T05:45:29;94606.50;;;1.28;100.00
39223;BME280;24936;46.328;11.026;2022-11-15T05:47:57;94603.50;;;1.29;100.00
39223;BME280;24936;46.328;11.026;2022-11-15T05:50:25;94595.22;;;1.18;100.00
39223;BME280;24936;46.328;11.026;2022-11-15T05:52:51;94600.09;;;1.04;100.00
39223;BME280;24936;46.328;11.026;2022-11-15T05:55:16;94600.63;;;1.10;100.00
39223;BME280;24936;46.328;11.026;2022-11-15T05:57:42;94605.09;;;1.06;100.00
39223;BME280;24936;46.328;11.026;2022-11-15T06:00:08;94599.44;;;1.07;100.00
39223;BME280;24936;46.328;11.026;2022-11-15T06:02:34;94592.31;;;1.11;100.00
39223;BME280;24936;46.328;11.026;2022-11-15T06:04:59;94599.06;;;1.21;100.00
39223;BME280;24936;46.328;11.026;2022-11-15T06:07:25;94598.75;;;1.23;100.00
39223;BME280;24936;46.328;11.026;2022-11-15T06:09:50;94597.59;;;1.36;100.00
39223;BME280;24936;46.328;11.026;2022-11-15T06:12:16;94593.69;;;1.45;100.00
39223;BME280;24936;46.328;11.026;2022-11-15T06:14:41;94600.88;;;1.57;100.00
39223;BME280;24936;46.328;11.026;2022-11-15T06:17:06;94590.88;;;1.54;100.00
39223;BME280;24936;46.328;11.026;2022-11-15T06:19:32;94592.47;;;1.43;100.00
39223;BME280;24936;46.328;11.026;2022-11-15T06:22:00;94591.16;;;1.37;100.00
39223;BME280;24936;46.328;11.026;2022-11-15T06:24:26;94588.28;;;1.30;100.00
39223;BME280;24936;46.328;11.026;2022-11-15T06:26:51;94606.63;;;1.19;100.00
39223;BME280;24936;46.328;11.026;2022-11-15T06:29:17;94607.09;;;1.09;100.00
39223;BME280;24936;46.328;11.026;2022-11-15T06:31:42;94601.53;;;1.14;100.00
39223;BME280;24936;46.328;11.026;2022-11-15T06:34:08;94608.31;;;0.99;100.00
39223;BME280;24936;46.328;11.026;2022-11-15T06:36:36;94621.09;;;0.93;100.00
39223;BME280;24936;46.328;11.026;2022-11-15T06:39:05;94614.53;;;1.03;100.00
39223;BME280;24936;46.328;11.026;2022-11-15T06:41:34;94613.41;;;1.16;100.00
39223;BME280;24936;46.328;11.026;2022-11-15T06:43:59;94625.22;;;1.03;100.00
39223;BME280;24936;46.328;11.026;2022-11-15T06:46:25;94624.88;;;1.05;100.00
39223;BME280;24936;46.328;11.026;2022-11-15T06:48:51;94621.66;;;1.11;100.00
39223;BME280;24936;46.328;11.026;2022-11-15T06:51:16;94633.72;;;1.21;100.00
39223;BME280;24936;46.328;11.026;2022-11-15T06:53:42;94630.75;;;1.23;100.00
39223;BME280;24936;46.328;11.026;2022-11-15T06:56:07;94628.25;;;1.30;100.00
39223;BME280;24936;46.328;11.026;2022-11-15T06:58:34;94633.16;;;1.28;100.00
39223;BME280;24936;46.328;11.026;2022-11-15T07:01:01;94636.72;;;1.32;100.00
39223;BME280;24936;46.328;11.026;2022-11-15T07:03:27;94630.84;;;1.26;100.00
39223;BME280;24936;46.328;11.026;2022-11-15T07:05:53;94624.81;;;1.41;100.00
39223;BME280;24936;46.328;11.026;2022-11-15T07:08:20;94639.91;;;1.37;100.00
39223;BME280;24936;46.328;11.026;2022-11-15T07:10:45;94642.25;;;1.39;100.00
39223;BME280;24936;46.328;11.026;2022-11-15T07:13:11;94642.25;;;1.39;100.00
39223;BME280;24936;46.328;11.026;2022-11-15T07:15:36;94644.47;;;1.37;100.00
39223;BME280;24936;46.328;11.026;2022-11-15T07:18:01;94647.03;;;1.45;100.00
39223;BME280;24936;46.328;11.026;2022-11-15T07:20:27;94638.94;;;1.42;100.00
39223;BME280;24936;46.328;11.026;2022-11-15T07:22:59;94641.38;;;1.35;100.00
39223;BME280;24936;46.328;11.026;2022-11-15T07:25:25;94633.28;;;1.31;100.00
39223;BME280;24936;46.328;11.026;2022-11-15T07:27:58;94633.50;;;1.26;100.00
39223;BME280;24936;46.328;11.026;2022-11-15T07:30:25;94633.16;;;1.28;100.00
39223;BME280;24936;46.328;11.026;2022-11-15T07:32:57;94637.16;;;1.34;100.00
39223;BME280;24936;46.328;11.026;2022-11-15T07:35:24;94629.91;;;1.46;100.00
39223;BME280;24936;46.328;11.026;2022-11-15T07:37:57;94630.34;;;1.49;100.00
39223;BME280;24936;46.328;11.026;2022-11-15T07:40:23;94637.13;;;1.46;100.00
39223;BME280;24936;46.328;11.026;2022-11-15T07:42:48;94633.56;;;1.54;100.00
39223;BME280;24936;46.328;11.026;2022-11-15T07:45:24;94623.88;;;1.62;100.00
39223;BME280;24936;46.328;11.026;2022-11-15T07:47:53;94624.69;;;1.78;100.00
39223;BME280;24936;46.328;11.026;2022-11-15T07:50:18;94627.66;;;1.89;100.00
39223;BME280;24936;46.328;11.026;2022-11-15T07:52:44;94636.16;;;2.07;100.00
39223;BME280;24936;46.328;11.026;2022-11-15T07:55:11;94636.50;;;2.21;100.00
39223;BME280;24936;46.328;11.026;2022-11-15T07:57:36;94631.22;;;2.37;100.00
39223;BME280;24936;46.328;11.026;2022-11-15T08:00:04;94624.31;;;2.52;100.00
39223;BME280;24936;46.328;11.026;2022-11-15T08:02:29;94626.75;;;2.57;100.00
39223;BME280;24936;46.328;11.026;2022-11-15T08:04:54;94631.94;;;2.65;100.00
39223;BME280;24936;46.328;11.026;2022-11-15T08:07:20;94627.72;;;2.80;100.00
39223;BME280;24936;46.328;11.026;2022-11-15T08:09:45;94626.56;;;2.97;100.00
39223;BME280;24936;46.328;11.026;2022-11-15T08:12:10;94620.25;;;3.21;100.00
39223;BME280;24936;46.328;11.026;2022-11-15T08:14:36;94621.34;;;3.36;100.00
39223;BME280;24936;46.328;11.026;2022-11-15T08:17:01;94623.19;;;3.51;100.00
39223;BME280;24936;46.328;11.026;2022-11-15T08:19:27;94614.59;;;3.61;100.00
39223;BME280;24936;46.328;11.026;2022-11-15T08:21:52;94612.59;;;3.74;100.00
39223;BME280;24936;46.328;11.026;2022-11-15T08:24:17;94610.63;;;3.90;100.00
39223;BME280;24936;46.328;11.026;2022-11-15T08:26:43;94607.56;;;4.11;100.00
39223;BME280;24936;46.328;11.026;2022-11-15T08:29:08;94610.19;;;4.31;100.00
39223;BME280;24936;46.328;11.026;2022-11-15T08:31:35;94608.75;;;4.56;100.00
39223;BME280;24936;46.328;11.026;2022-11-15T08:34:02;94607.13;;;4.75;100.00
39223;BME280;24936;46.328;11.026;2022-11-15T08:36:27;94600.56;;;4.95;100.00
39223;BME280;24936;46.328;11.026;2022-11-15T08:38:53;94593.47;;;4.83;100.00
39223;BME280;24936;46.328;11.026;2022-11-15T08:41:40;94582.16;;;4.94;100.00
39223;BME280;24936;46.328;11.026;2022-11-15T08:44:05;94579.19;;;4.76;100.00
39223;BME280;24936;46.328;11.026;2022-11-15T08:46:30;94568.78;;;4.71;100.00
39223;BME280;24936;46.328;11.026;2022-11-15T08:48:56;94566.38;;;4.88;100.00
39223;BME280;24936;46.328;11.026;2022-11-15T08:51:21;94561.16;;;4.99;100.00
39223;BME280;24936;46.328;11.026;2022-11-15T08:53:47;94555.38;;;5.24;100.00
39223;BME280;24936;46.328;11.026;2022-11-15T08:56:14;94546.81;;;5.14;100.00
39223;BME280;24936;46.328;11.026;2022-11-15T08:58:40;94547.53;;;5.72;100.00
39223;BME280;24936;46.328;11.026;2022-11-15T09:01:06;94541.63;;;5.89;100.00
39223;BME280;24936;46.328;11.026;2022-11-15T09:03:31;94527.63;;;5.73;100.00
39223;BME280;24936;46.328;11.026;2022-11-15T09:05:59;94530.25;;;5.99;100.00
39223;BME280;24936;46.328;11.026;2022-11-15T09:08:28;94522.84;;;6.26;100.00
39223;BME280;24936;46.328;11.026;2022-11-15T09:10:54;94519.50;;;6.44;100.00
39223;BME280;24936;46.328;11.026;2022-11-15T09:13:19;94513.34;;;6.40;100.00
39223;BME280;24936;46.328;11.026;2022-11-15T09:15:45;94514.38;;;6.28;100.00
39223;BME280;24936;46.328;11.026;2022-11-15T09:18:10;94520.22;;;6.37;100.00
39223;BME280;24936;46.328;11.026;2022-11-15T09:20:35;94521.47;;;6.06;100.00
39223;BME280;24936;46.328;11.026;2022-11-15T09:23:01;94523.53;;;5.86;100.00
39223;BME280;24936;46.328;11.026;2022-11-15T09:25:27;94531.97;;;6.22;100.00
39223;BME280;24936;46.328;11.026;2022-11-15T09:27:53;94539.97;;;6.11;100.00
39223;BME280;24936;46.328;11.026;2022-11-15T09:30:18;94527.81;;;5.91;100.00
39223;BME280;24936;46.328;11.026;2022-11-15T09:32:44;94526.03;;;6.02;100.00
39223;BME280;24936;46.328;11.026;2022-11-15T09:35:09;94513.41;;;7.75;100.00
39223;BME280;24936;46.328;11.026;2022-11-15T09:37:34;94489.66;;;9.06;100.00
39223;BME280;24936;46.328;11.026;2022-11-15T09:40:00;94475.13;;;10.46;100.00
39223;BME280;24936;46.328;11.026;2022-11-15T09:45:37;94463.34;;;11.46;100.00
39223;BME280;24936;46.328;11.026;2022-11-15T09:48:13;94456.34;;;12.14;100.00
39223;BME280;24936;46.328;11.026;2022-11-15T09:50:49;94456.91;;;10.99;100.00
39223;BME280;24936;46.328;11.026;2022-11-15T09:53:28;94458.63;;;10.79;100.00
39223;BME280;24936;46.328;11.026;2022-11-15T09:56:14;94458.97;;;11.26;100.00
39223;BME280;24936;46.328;11.026;2022-11-15T09:59:07;94450.94;;;11.15;100.00
39223;BME280;24936;46.328;11.026;2022-11-15T10:04:48;94445.31;;;10.95;100.00
39223;BME280;24936;46.328;11.026;2022-11-15T10:09:58;94424.53;;;12.65;100.00
39223;BME280;24936;46.328;11.026;2022-11-15T10:12:27;94426.09;;;12.39;100.00
39223;BME280;24936;46.328;11.026;2022-11-15T10:15:13;94433.16;;;10.76;100.00
39223;BME280;24936;46.328;11.026;2022-11-15T10:17:53;94430.03;;;10.78;100.00
39223;BME280;24936;46.328;11.026;2022-11-15T10:20:26;94422.41;;;10.65;100.00
39223;BME280;24936;46.328;11.026;2022-11-15T10:22:58;94412.03;;;10.98;100.00
39223;BME280;24936;46.328;11.026;2022-11-15T10:25:27;94402.97;;;11.46;100.00
39223;BME280;24936;46.328;11.026;2022-11-15T10:28:04;94403.38;;;11.10;100.00
39223;BME280;24936;46.328;11.026;2022-11-15T10:30:44;94399.78;;;10.86;100.00
39223;BME280;24936;46.328;11.026;2022-11-15T10:41:17;94371.31;;;8.97;100.00
39223;BME280;24936;46.328;11.026;2022-11-15T10:43:43;94374.41;;;8.92;100.00
39223;BME280;24936;46.328;11.026;2022-11-15T10:46:22;94370.88;;;9.09;100.00
39223;BME280;24936;46.328;11.026;2022-11-15T10:48:48;94362.47;;;8.86;100.00
39223;BME280;24936;46.328;11.026;2022-11-15T10:51:27;94361.78;;;8.49;100.00
39223;BME280;24936;46.328;11.026;2022-11-15T10:53:57;94362.56;;;8.32;100.00
39223;BME280;24936;46.328;11.026;2022-11-15T10:56:25;94365.63;;;8.16;100.00
39223;BME280;24936;46.328;11.026;2022-11-15T10:58:54;94354.88;;;7.98;100.00
39223;BME280;24936;46.328;11.026;2022-11-15T11:01:26;94350.22;;;8.24;100.00
39223;BME280;24936;46.328;11.026;2022-11-15T11:04:02;94347.94;;;8.22;100.00
39223;BME280;24936;46.328;11.026;2022-11-15T11:06:29;94342.53;;;8.29;100.00
39223;BME280;24936;46.328;11.026;2022-11-15T11:08:58;94344.47;;;8.00;100.00
39223;BME280;24936;46.328;11.026;2022-11-15T11:11:25;94338.31;;;7.96;100.00
39223;BME280;24936;46.328;11.026;2022-11-15T11:14:13;94336.38;;;7.93;100.00
39223;BME280;24936;46.328;11.026;2022-11-15T11:16:42;94337.94;;;7.94;100.00
39223;BME280;24936;46.328;11.026;2022-11-15T11:44:25;94304.03;;;8.04;100.00
39223;BME280;24936;46.328;11.026;2022-11-15T11:47:00;94295.59;;;7.95;100.00
39223;BME280;24936;46.328;11.026;2022-11-15T11:52:17;94293.66;;;8.13;100.00
39223;BME280;24936;46.328;11.026;2022-11-15T11:58:02;94287.13;;;8.00;100.00
39223;BME280;24936;46.328;11.026;2022-11-15T12:00:20;94290.22;;;7.98;100.00
39223;BME280;24936;46.328;11.026;2022-11-15T12:03:35;94285.59;;;7.92;100.00
39223;BME280;24936;46.328;11.026;2022-11-15T12:06:10;94278.66;;;8.01;100.00
39223;BME280;24936;46.328;11.026;2022-11-15T12:08:47;94283.25;;;8.04;100.00
39223;BME280;24936;46.328;11.026;2022-11-15T12:11:17;94280.56;;;7.97;100.00
39223;BME280;24936;46.328;11.026;2022-11-15T12:13:48;94276.75;;;7.91;100.00
39223;BME280;24936;46.328;11.026;2022-11-15T12:16:18;94269.81;;;7.94;100.00
39223;BME280;24936;46.328;11.026;2022-11-15T12:18:51;94273.69;;;7.78;100.00
39223;BME280;24936;46.328;11.026;2022-11-15T12:21:42;94267.91;;;7.76;100.00
39223;BME280;24936;46.328;11.026;2022-11-15T12:24:16;94265.59;;;7.71;100.00
39223;BME280;24936;46.328;11.026;2022-11-15T12:29:48;94268.25;;;7.82;100.00
39223;BME280;24936;46.328;11.026;2022-11-15T12:32:35;94259.81;;;7.91;100.00
39223;BME280;24936;46.328;11.026;2022-11-15T12:35:05;94257.50;;;7.86;100.00
39223;BME280;24936;46.328;11.026;2022-11-15T12:45:25;94244.41;;;7.95;100.00
39223;BME280;24936;46.328;11.026;2022-11-15T12:47:51;94244.41;;;7.77;100.00
39223;BME280;24936;46.328;11.026;2022-11-15T13:06:51;94222.13;;;7.51;100.00
39223;BME280;24936;46.328;11.026;2022-11-15T13:11:56;94213.66;;;7.53;100.00
39223;BME280;24936;46.328;11.026;2022-11-15T13:19:52;94205.94;;;7.94;100.00
39223;BME280;24936;46.328;11.026;2022-11-15T13:22:18;94198.97;;;8.04;100.00
39223;BME280;24936;46.328;11.026;2022-11-15T13:25:03;94201.22;;;8.13;100.00
39223;BME280;24936;46.328;11.026;2022-11-15T13:27:29;94201.28;;;8.09;100.00
39223;BME280;24936;46.328;11.026;2022-11-15T13:29:54;94196.66;;;8.10;100.00
39223;BME280;24936;46.328;11.026;2022-11-15T13:32:20;94186.25;;;8.01;100.00
39223;BME280;24936;46.328;11.026;2022-11-15T13:34:48;94185.47;;;8.04;100.00
39223;BME280;24936;46.328;11.026;2022-11-15T13:39:45;94182.81;;;7.93;100.00
39223;BME280;24936;46.328;11.026;2022-11-15T13:42:16;94183.22;;;7.88;100.00
39223;BME280;24936;46.328;11.026;2022-11-15T13:44:59;94181.31;;;7.81;100.00
39223;BME280;24936;46.328;11.026;2022-11-15T13:47:26;94173.63;;;7.69;100.00
39223;BME280;24936;46.328;11.026;2022-11-15T13:49:52;94182.13;;;7.46;100.00
39223;BME280;24936;46.328;11.026;2022-11-15T13:52:18;94174.03;;;7.57;100.00
39223;BME280;24936;46.328;11.026;2022-11-15T13:54:47;94176.75;;;7.46;100.00
39223;BME280;24936;46.328;11.026;2022-11-15T13:57:21;94184.06;;;7.46;100.00
39223;BME280;24936;46.328;11.026;2022-11-15T14:00:03;94175.56;;;7.51;100.00
39223;BME280;24936;46.328;11.026;2022-11-15T14:02:35;94172.53;;;7.42;100.00
39223;BME280;24936;46.328;11.026;2022-11-15T14:05:21;94172.13;;;7.40;100.00
39223;BME280;24936;46.328;11.026;2022-11-15T14:07:57;94164.84;;;7.37;100.00
39223;BME280;24936;46.328;11.026;2022-11-15T14:12:56;94166.38;;;7.38;100.00
39223;BME280;24936;46.328;11.026;2022-11-15T14:15:38;94179.44;;;7.32;100.00
39223;BME280;24936;46.328;11.026;2022-11-15T14:18:05;94169.06;;;7.23;100.00
39223;BME280;24936;46.328;11.026;2022-11-15T14:20:35;94167.13;;;7.24;100.00
39223;BME280;24936;46.328;11.026;2022-11-15T14:25:54;94153.69;;;6.99;100.00
39223;BME280;24936;46.328;11.026;2022-11-15T14:30:50;94154.41;;;6.74;100.00
39223;BME280;24936;46.328;11.026;2022-11-15T14:33:21;94151.34;;;6.72;100.00
39223;BME280;24936;46.328;11.026;2022-11-15T14:35:47;94155.97;;;6.90;100.00
39223;BME280;24936;46.328;11.026;2022-11-15T14:38:12;94147.13;;;6.78;100.00
39223;BME280;24936;46.328;11.026;2022-11-15T14:40:38;94150.59;;;6.68;100.00
39223;BME280;24936;46.328;11.026;2022-11-15T14:43:04;94157.88;;;6.64;100.00
39223;BME280;24936;46.328;11.026;2022-11-15T14:45:29;94157.47;;;6.62;100.00
39223;BME280;24936;46.328;11.026;2022-11-15T14:47:55;94154.78;;;6.66;100.00
39223;BME280;24936;46.328;11.026;2022-11-15T14:50:21;94154.03;;;6.69;100.00
39223;BME280;24936;46.328;11.026;2022-11-15T14:52:47;94149.41;;;6.62;100.00
39223;BME280;24936;46.328;11.026;2022-11-15T14:55:26;94151.72;;;6.53;100.00
39223;BME280;24936;46.328;11.026;2022-11-15T14:57:54;94152.03;;;6.44;100.00
39223;BME280;24936;46.328;11.026;2022-11-15T15:00:20;94152.03;;;6.44;100.00
39223;BME280;24936;46.328;11.026;2022-11-15T15:02:46;94149.34;;;6.37;100.00